Flight Track Log - Related Links

Times and Time Zones

All times are in EDT time to prevent confusion due to time zone crossing. See the RPA4910 flight status page for this flight to view local times or setup timezone preferences in your user account.

Time Position Orientation Groundspeed Altitude Reporting Facility
EDT Latitude Longitude Course Direction KTS MPH feet Rate Location/Type
Wed 10:13:08 PM 40.6333 -74.1833 37° Northeast 187 215 2,300  Level New York TRACON
Wed 10:14:14 PM 40.6000 -74.2500 237° Southwest 226 260 4,400 1,762 Climbing New York TRACON
Wed 10:15:00 PM 41.0758 -74.0712 90° East  Level Estimated
Wed 10:15:14 PM 40.6167 -74.3167 288° West 247 284 6,000  Level New York TRACON
Wed 10:16:00 PM 41.1717 -74.0467 75° East  Level Estimated
Wed 10:16:14 PM 40.6833 -74.3500 339° North 273 314 6,100  Level New York TRACON
Wed 10:17:00 PM 41.2675 -74.0221 75° East  Level Estimated
Wed 10:17:14 PM 40.7500 -74.3167 21° North 266 306 6,000  Level New York TRACON
Wed 10:18:00 PM 41.3633 -73.9974 37° Northeast  Level Estimated
Wed 10:18:20 PM 40.8333 -74.2833 17° North 265 305 6,000  Level New York TRACON
Wed 10:19:08 PM 40.8833 -74.2833 360° North 270 311 6,000  Level New York TRACON
Wed 10:20:14 PM 40.9667 -74.3000 351° North 264 304 6,000  Level New York TRACON
Wed 10:21:14 PM 41.0333 -74.2500 29° Northeast 268 308 6,000 450 Level New York TRACON
Wed 10:22:14 PM 41.0833 -74.1833 45° Northeast 272 313 6,900 1,429 Climbing New York TRACON
Wed 10:23:20 PM 41.1167 -74.0833 66° East 264 304 9,000 951 Climbing New York TRACON
Wed 10:25:17 PM 41.1714 -73.9236 65° Northeast 301 346 9,800 789 Climbing Boston Center
Wed 10:26:15 PM 41.2042 -73.8194 67° East 284 327 11,300 1,462 Climbing Boston Center
Wed 10:27:16 PM 41.2300 -73.7317 69° East 284 327 12,700 1,300 Climbing Boston Center
Wed 10:28:15 PM 41.2731 -73.6278 61° Northeast 284 327 13,900 1,210 Climbing Boston Center
Wed 10:29:15 PM 41.3461 -73.6097 11° North 264 304 15,100 1,200 Climbing Boston Center
Wed 10:30:15 PM 41.4378 -73.5975 North 269 310 16,300 1,033 Climbing Boston Center
Wed 10:31:17 PM 41.5131 -73.5878 North 293 337 17,200 900 Climbing Boston Center
Wed 10:32:15 PM 41.6047 -73.5756 North 303 349 18,100 857 Climbing Boston Center
Wed 10:33:16 PM 41.6883 -73.5631 North 309 356 18,900 950 Climbing Boston Center
Wed 10:34:15 PM 41.7656 -73.5533 North 309 356 20,000 1,050 Climbing Boston Center
Wed 10:35:16 PM 41.8469 -73.5436 North 309 356 21,000 942 Climbing Boston Center
Wed 10:36:16 PM 41.9303 -73.5311 North 303 349 21,900 864 Climbing Boston Center
Wed 10:37:28 PM 42.0306 -73.5189 North 298 343 22,900 818 Climbing Boston Center
Wed 10:38:28 PM 42.1161 -73.5036 North 298 343 23,700 744 Climbing Boston Center
Wed 10:39:29 PM 42.1997 -73.4883 North 298 343 24,400 605 Climbing Boston Center
Wed 10:40:27 PM 42.2831 -73.4783 North 298 343 24,900 305 Climbing Boston Center
Wed 10:41:27 PM 42.3664 -73.4714 North 298 343 25,000 50 Climbing Boston Center
Wed 10:42:27 PM 42.4625 -73.4589 North 309 356 25,000  Level Boston Center
Wed 10:43:28 PM 42.5564 -73.4436 North 329 379 25,000  Level Boston Center
Wed 10:44:27 PM 42.6544 -73.4281 North 341 392 25,000  Level Boston Center
Wed 10:45:29 PM 42.7525 -73.4128 North 352 405 25,000  Level Boston Center
Wed 10:46:29 PM 42.8508 -73.4000 North 352 405 25,000 -51 Level Boston Center
Wed 10:47:27 PM 42.9425 -73.3844 North 345 397 24,900 -504 Descending Boston Center
Wed 10:48:28 PM 43.0428 -73.3689 North 350 403 24,000 -443 Descending Boston Center
Wed 10:49:29 PM 43.1469 -73.3564 North 361 415 24,000  Level Boston Center
Wed 10:50:27 PM 43.2450 -73.3408 North 361 415 24,000  Level Boston Center
Wed 10:51:27 PM 43.3389 -73.3278 North 350 403 24,000 -295 Level Boston Center
Wed 10:52:29 PM 43.4267 -73.3119 North 337 388 23,400 -1,475 Descending Boston Center
Wed 10:53:29 PM 43.5225 -73.2961 North 330 380 21,000 -2,492 Descending Boston Center
Wed 10:54:27 PM 43.6186 -73.2833 North 335 386 18,500 2,034 Descending Boston Center
Wed 10:55:27 PM 43.7144 -73.2703 North 340 391 25,000 -2,628 Climbing Boston Center
Wed 10:56:28 PM 43.8147 -73.2544 North 333 383 13,200 -6,793 Descending Boston Center
Wed 10:57:28 PM 43.9044 -73.2411 North 325 374 11,300 -1,966 Descending Boston Center
Wed 10:58:27 PM 43.9856 -73.2625 349° North 306 352 9,300 -1,850 Descending Boston Center
Wed 10:59:28 PM 44.0603 -73.2894 345° North 288 331 7,600 -1,636 Descending Boston Center
Wed 11:00:28 PM 44.1164 -73.3075 347° North 273 314 6,000 -1,289 Descending Boston Center
Wed 11:01:29 PM 44.1994 -73.3350 347° North 257 296 5,000 -504 Descending Boston Center
Wed 11:02:27 PM 44.2661 -73.3533 349° North 252 290 5,000  Level Boston Center
Wed 11:03:27 PM 44.3264 -73.3717 348° North 233 268 5,000 -496 Level Boston Center
Wed 11:04:28 PM 44.3867 -73.3783 355° North 221 254 4,000 -984 Descending Boston Center
Wed 11:05:29 PM 44.4472 -73.3792 359° North 216 249 3,000 -504 Descending Boston Center
Wed 11:06:27 PM 44.5033 -73.3861 355° North 211 243 3,000 -407 Level Boston Center
Wed 11:07:27 PM 44.5475 -73.3400 37° Northeast 186 214 2,200 -400 Descending Boston Center
Wed 11:08:27 PM 44.5458 -73.2672 92° East 166 191 2,200 -344 Level Boston Center
Wed 11:09:29 PM 44.5192 -73.2292 134° Southeast 160 184 1,500 -694 Descending Boston Center
Wed 11:10:28 PM 44.4944 -73.1908 132° Southeast 135 155 800 -610 Descending Boston Center
Wed 11:11:27 PM 44.4736 -73.1586 132° Southeast 127 146 300 -508 Descending Boston Center

Login

Don't have an account? Register now (free) for customized features, flight alerts, and more!